sensor_id;sensor_type;location;lat;lon;timestamp;pressure;altitude;pressure_sealevel;temperature;humidity
5872;BME280;2962;51.312;7.378;2023-03-04T00:00:19;98200.72;;;1.76;100.00
5872;BME280;2962;51.312;7.378;2023-03-04T00:02:44;98194.13;;;1.68;100.00
5872;BME280;2962;51.312;7.378;2023-03-04T00:05:10;98188.84;;;1.63;100.00
5872;BME280;2962;51.312;7.378;2023-03-04T00:07:35;98195.81;;;1.64;100.00
5872;BME280;2962;51.312;7.378;2023-03-04T00:10:00;98196.91;;;1.63;100.00
5872;BME280;2962;51.312;7.378;2023-03-04T00:12:26;98192.09;;;1.60;100.00
5872;BME280;2962;51.312;7.378;2023-03-04T00:14:51;98191.84;;;1.62;100.00
5872;BME280;2962;51.312;7.378;2023-03-04T00:17:16;98186.91;;;1.50;100.00
5872;BME280;2962;51.312;7.378;2023-03-04T00:19:42;98190.09;;;1.52;100.00
5872;BME280;2962;51.312;7.378;2023-03-04T00:22:07;98193.06;;;1.51;100.00
5872;BME280;2962;51.312;7.378;2023-03-04T00:24:32;98186.09;;;1.50;100.00
5872;BME280;2962;51.312;7.378;2023-03-04T00:26:59;98181.09;;;1.43;100.00
5872;BME280;2962;51.312;7.378;2023-03-04T00:29:24;98173.75;;;1.49;100.00
5872;BME280;2962;51.312;7.378;2023-03-04T00:31:49;98176.56;;;1.57;100.00
5872;BME280;2962;51.312;7.378;2023-03-04T00:34:14;98177.97;;;1.55;100.00
5872;BME280;2962;51.312;7.378;2023-03-04T00:36:40;98177.97;;;1.55;100.00
5872;BME280;2962;51.312;7.378;2023-03-04T00:39:09;98183.69;;;1.48;100.00
5872;BME280;2962;51.312;7.378;2023-03-04T00:41:34;98175.34;;;1.50;100.00
5872;BME280;2962;51.312;7.378;2023-03-04T00:43:59;98178.69;;;1.41;100.00
5872;BME280;2962;51.312;7.378;2023-03-04T00:46:24;98170.34;;;1.43;100.00
5872;BME280;2962;51.312;7.378;2023-03-04T00:48:50;98171.84;;;1.49;100.00
5872;BME280;2962;51.312;7.378;2023-03-04T00:51:15;98180.13;;;1.53;100.00
5872;BME280;2962;51.312;7.378;2023-03-04T00:53:40;98173.53;;;1.45;100.00
5872;BME280;2962;51.312;7.378;2023-03-04T00:56:06;98178.69;;;1.60;100.00
5872;BME280;2962;51.312;7.378;2023-03-04T00:58:31;98175.78;;;1.57;100.00
5872;BME280;2962;51.312;7.378;2023-03-04T01:00:56;98172.59;;;1.55;100.00
5872;BME280;2962;51.312;7.378;2023-03-04T01:03:22;98174.09;;;1.61;100.00
5872;BME280;2962;51.312;7.378;2023-03-04T01:05:48;98174.31;;;1.64;100.00
5872;BME280;2962;51.312;7.378;2023-03-04T01:08:13;98175.41;;;1.63;100.00
5872;BME280;2962;51.312;7.378;2023-03-04T01:10:39;98165.25;;;1.60;100.00
5872;BME280;2962;51.312;7.378;2023-03-04T01:13:04;98158.88;;;1.56;100.00
5872;BME280;2962;51.312;7.378;2023-03-04T01:15:29;98155.03;;;1.62;100.00
5872;BME280;2962;51.312;7.378;2023-03-04T01:17:55;98156.91;;;1.62;100.00
5872;BME280;2962;51.312;7.378;2023-03-04T01:20:20;98153.94;;;1.63;100.00
5872;BME280;2962;51.312;7.378;2023-03-04T01:22:45;98144.28;;;1.43;100.00
5872;BME280;2962;51.312;7.378;2023-03-04T01:25:15;98137.47;;;1.51;100.00
5872;BME280;2962;51.312;7.378;2023-03-04T01:27:40;98136.16;;;1.49;100.00
5872;BME280;2962;51.312;7.378;2023-03-04T01:30:06;98144.56;;;1.61;100.00
5872;BME280;2962;51.312;7.378;2023-03-04T01:32:32;98137.59;;;1.60;100.00
5872;BME280;2962;51.312;7.378;2023-03-04T01:34:57;98139.91;;;1.66;100.00
5872;BME280;2962;51.312;7.378;2023-03-04T01:37:22;98152.91;;;1.59;100.00
5872;BME280;2962;51.312;7.378;2023-03-04T01:39:47;98141.16;;;1.55;100.00
5872;BME280;2962;51.312;7.378;2023-03-04T01:42:23;98146.81;;;1.54;100.00
5872;BME280;2962;51.312;7.378;2023-03-04T01:44:50;98135.44;;;1.62;100.00
5872;BME280;2962;51.312;7.378;2023-03-04T01:47:17;98139.19;;;1.61;100.00
5872;BME280;2962;51.312;7.378;2023-03-04T01:49:43;98124.75;;;1.57;100.00
5872;BME280;2962;51.312;7.378;2023-03-04T01:52:12;98128.84;;;1.54;100.00
5872;BME280;2962;51.312;7.378;2023-03-04T01:54:38;98133.03;;;1.60;100.00
5872;BME280;2962;51.312;7.378;2023-03-04T01:57:24;98125.69;;;1.66;100.00
5872;BME280;2962;51.312;7.378;2023-03-04T02:02:43;98120.38;;;1.61;100.00
5872;BME280;2962;51.312;7.378;2023-03-04T02:05:09;98126.75;;;1.65;100.00
5872;BME280;2962;51.312;7.378;2023-03-04T02:07:35;98113.50;;;1.55;100.00
5872;BME280;2962;51.312;7.378;2023-03-04T02:10:00;98124.06;;;1.65;100.00
5872;BME280;2962;51.312;7.378;2023-03-04T02:12:25;98110.75;;;1.60;100.00
5872;BME280;2962;51.312;7.378;2023-03-04T02:14:51;98122.50;;;1.64;100.00
5872;BME280;2962;51.312;7.378;2023-03-04T02:17:16;98125.19;;;1.64;100.00
5872;BME280;2962;51.312;7.378;2023-03-04T02:22:16;98117.91;;;1.64;100.00
5872;BME280;2962;51.312;7.378;2023-03-04T02:24:49;98113.84;;;1.67;100.00
5872;BME280;2962;51.312;7.378;2023-03-04T02:27:17;98099.34;;;1.49;100.00
5872;BME280;2962;51.312;7.378;2023-03-04T02:29:42;98103.84;;;1.54;100.00
5872;BME280;2962;51.312;7.378;2023-03-04T02:32:10;98121.00;;;1.58;100.00
5872;BME280;2962;51.312;7.378;2023-03-04T02:34:37;98113.94;;;1.62;100.00
5872;BME280;2962;51.312;7.378;2023-03-04T02:37:05;98114.88;;;1.52;100.00
5872;BME280;2962;51.312;7.378;2023-03-04T02:39:34;98107.84;;;1.56;100.00
5872;BME280;2962;51.312;7.378;2023-03-04T02:42:00;98108.06;;;1.60;100.00
5872;BME280;2962;51.312;7.378;2023-03-04T02:44:32;98109.72;;;1.56;100.00
5872;BME280;2962;51.312;7.378;2023-03-04T02:46:59;98109.88;;;1.45;100.00
5872;BME280;2962;51.312;7.378;2023-03-04T02:49:26;98095.38;;;1.46;100.00
5872;BME280;2962;51.312;7.378;2023-03-04T02:52:07;98100.97;;;1.50;100.00
5872;BME280;2962;51.312;7.378;2023-03-04T02:54:33;98095.38;;;1.46;100.00
5872;BME280;2962;51.312;7.378;2023-03-04T02:57:01;98090.41;;;1.54;100.00
5872;BME280;2962;51.312;7.378;2023-03-04T02:59:27;98096.88;;;1.53;100.00
5872;BME280;2962;51.312;7.378;2023-03-04T03:01:53;98090.94;;;1.56;100.00
5872;BME280;2962;51.312;7.378;2023-03-04T03:04:19;98088.69;;;1.63;100.00
5872;BME280;2962;51.312;7.378;2023-03-04T03:06:45;98083.88;;;1.60;100.00
5872;BME280;2962;51.312;7.378;2023-03-04T03:09:11;98086.44;;;1.51;100.00
5872;BME280;2962;51.312;7.378;2023-03-04T03:11:36;98082.19;;;1.50;100.00
5872;BME280;2962;51.312;7.378;2023-03-04T03:14:02;98090.03;;;1.46;100.00
5872;BME280;2962;51.312;7.378;2023-03-04T03:16:27;98089.25;;;1.60;100.00
5872;BME280;2962;51.312;7.378;2023-03-04T03:18:53;98091.63;;;1.61;100.00
5872;BME280;2962;51.312;7.378;2023-03-04T03:21:18;98077.50;;;1.56;100.00
5872;BME280;2962;51.312;7.378;2023-03-04T03:23:43;98077.28;;;1.52;100.00
5872;BME280;2962;51.312;7.378;2023-03-04T03:26:09;98085.56;;;1.56;100.00
5872;BME280;2962;51.312;7.378;2023-03-04T03:28:34;98076.13;;;1.58;100.00
5872;BME280;2962;51.312;7.378;2023-03-04T03:31:00;98079.97;;;1.52;100.00
5872;BME280;2962;51.312;7.378;2023-03-04T03:33:25;98079.59;;;1.59;100.00
5872;BME280;2962;51.312;7.378;2023-03-04T03:35:51;98053.50;;;1.45;100.00
5872;BME280;2962;51.312;7.378;2023-03-04T03:38:16;98071.03;;;1.57;100.00
5872;BME280;2962;51.312;7.378;2023-03-04T03:40:41;98074.25;;;1.59;100.00
5872;BME280;2962;51.312;7.378;2023-03-04T03:43:07;98067.94;;;1.50;100.00
5872;BME280;2962;51.312;7.378;2023-03-04T03:45:32;98063.75;;;1.43;100.00
5872;BME280;2962;51.312;7.378;2023-03-04T03:47:57;98068.53;;;1.46;100.00
5872;BME280;2962;51.312;7.378;2023-03-04T03:50:23;98073.09;;;1.46;100.00
5872;BME280;2962;51.312;7.378;2023-03-04T03:52:48;98068.38;;;1.38;100.00
5872;BME280;2962;51.312;7.378;2023-03-04T03:55:13;98065.91;;;1.41;100.00
5872;BME280;2962;51.312;7.378;2023-03-04T03:57:39;98070.91;;;1.48;100.00
5872;BME280;2962;51.312;7.378;2023-03-04T04:00:05;98074.91;;;1.51;100.00
5872;BME280;2962;51.312;7.378;2023-03-04T04:02:31;98076.88;;;1.45;100.00
5872;BME280;2962;51.312;7.378;2023-03-04T04:04:56;98070.75;;;1.58;100.00
5872;BME280;2962;51.312;7.378;2023-03-04T04:07:21;98072.94;;;1.56;100.00
5872;BME280;2962;51.312;7.378;2023-03-04T04:09:47;98066.84;;;1.51;100.00
5872;BME280;2962;51.312;7.378;2023-03-04T04:12:13;98073.28;;;1.50;100.00
5872;BME280;2962;51.312;7.378;2023-03-04T04:14:39;98058.97;;;1.40;100.00
5872;BME280;2962;51.312;7.378;2023-03-04T04:17:05;98064.19;;;1.51;100.00
5872;BME280;2962;51.312;7.378;2023-03-04T04:19:30;98058.00;;;1.50;100.00
5872;BME280;2962;51.312;7.378;2023-03-04T04:21:55;98060.19;;;1.48;100.00
5872;BME280;2962;51.312;7.378;2023-03-04T04:24:21;98051.41;;;1.42;100.00
5872;BME280;2962;51.312;7.378;2023-03-04T04:26:46;98060.47;;;1.46;100.00
5872;BME280;2962;51.312;7.378;2023-03-04T04:29:12;98056.19;;;1.45;100.00
5872;BME280;2962;51.312;7.378;2023-03-04T04:31:38;98063.56;;;1.54;100.00
5872;BME280;2962;51.312;7.378;2023-03-04T04:34:04;98064.66;;;1.53;100.00
5872;BME280;2962;51.312;7.378;2023-03-04T04:36:29;98066.84;;;1.51;100.00
5872;BME280;2962;51.312;7.378;2023-03-04T04:38:54;98058.72;;;1.56;100.00
5872;BME280;2962;51.312;7.378;2023-03-04T04:41:23;98063.56;;;1.54;100.00
5872;BME280;2962;51.312;7.378;2023-03-04T04:43:48;98064.38;;;1.54;100.00
5872;BME280;2962;51.312;7.378;2023-03-04T04:46:15;98066.97;;;1.59;100.00
5872;BME280;2962;51.312;7.378;2023-03-04T04:48:40;98064.38;;;1.54;100.00
5872;BME280;2962;51.312;7.378;2023-03-04T04:51:06;98074.50;;;1.57;100.00
5872;BME280;2962;51.312;7.378;2023-03-04T04:53:32;98069.44;;;1.56;100.00
5872;BME280;2962;51.312;7.378;2023-03-04T04:55:57;98063.06;;;1.52;100.00
5872;BME280;2962;51.312;7.378;2023-03-04T04:58:22;98061.84;;;1.44;100.00
5872;BME280;2962;51.312;7.378;2023-03-04T05:00:48;98063.44;;;1.45;100.00
5872;BME280;2962;51.312;7.378;2023-03-04T05:03:13;98067.13;;;1.49;100.00
5872;BME280;2962;51.312;7.378;2023-03-04T05:05:38;98068.66;;;1.55;100.00
5872;BME280;2962;51.312;7.378;2023-03-04T05:08:04;98050.38;;;1.38;100.00
5872;BME280;2962;51.312;7.378;2023-03-04T05:10:29;98068.53;;;1.46;100.00
5872;BME280;2962;51.312;7.378;2023-03-04T05:12:54;98053.00;;;1.43;100.00
5872;BME280;2962;51.312;7.378;2023-03-04T05:15:20;98062.06;;;1.48;100.00
5872;BME280;2962;51.312;7.378;2023-03-04T05:17:45;98051.00;;;1.35;100.00
5872;BME280;2962;51.312;7.378;2023-03-04T05:20:11;98059.47;;;1.42;100.00
5872;BME280;2962;51.312;7.378;2023-03-04T05:22:36;98066.00;;;1.36;100.00
5872;BME280;2962;51.312;7.378;2023-03-04T05:25:02;98057.44;;;1.34;100.00
5872;BME280;2962;51.312;7.378;2023-03-04T05:27:27;98048.97;;;1.27;100.00
5872;BME280;2962;51.312;7.378;2023-03-04T05:29:52;98049.78;;;1.28;100.00
5872;BME280;2962;51.312;7.378;2023-03-04T05:32:20;98050.78;;;1.32;100.00
5872;BME280;2962;51.312;7.378;2023-03-04T05:34:45;98061.56;;;1.45;100.00
5872;BME280;2962;51.312;7.378;2023-03-04T05:37:10;98060.28;;;1.43;100.00
5872;BME280;2962;51.312;7.378;2023-03-04T05:39:35;98060.53;;;1.41;100.00
5872;BME280;2962;51.312;7.378;2023-03-04T05:42:01;98060.47;;;1.46;100.00
5872;BME280;2962;51.312;7.378;2023-03-04T05:44:26;98061.34;;;1.42;100.00
5872;BME280;2962;51.312;7.378;2023-03-04T05:46:51;98048.00;;;1.37;100.00
5872;BME280;2962;51.312;7.378;2023-03-04T05:49:17;98059.06;;;1.49;100.00
5872;BME280;2962;51.312;7.378;2023-03-04T05:51:42;98064.25;;;1.45;100.00
5872;BME280;2962;51.312;7.378;2023-03-04T05:54:07;98047.06;;;1.46;100.00
5872;BME280;2962;51.312;7.378;2023-03-04T05:56:33;98066.75;;;1.56;100.00
5872;BME280;2962;51.312;7.378;2023-03-04T05:58:58;98069.03;;;1.49;100.00
5872;BME280;2962;51.312;7.378;2023-03-04T06:01:24;98073.81;;;1.52;100.00
5872;BME280;2962;51.312;7.378;2023-03-04T06:03:49;98075.97;;;1.50;100.00
5872;BME280;2962;51.312;7.378;2023-03-04T06:06:15;98074.69;;;1.47;100.00
5872;BME280;2962;51.312;7.378;2023-03-04T06:08:40;98067.66;;;1.51;100.00
5872;BME280;2962;51.312;7.378;2023-03-04T06:11:05;98073.81;;;1.52;100.00
5872;BME280;2962;51.312;7.378;2023-03-04T06:13:31;98069.13;;;1.43;100.00
5872;BME280;2962;51.312;7.378;2023-03-04T06:15:58;98081.22;;;1.41;100.00
5872;BME280;2962;51.312;7.378;2023-03-04T06:18:24;98082.31;;;1.40;100.00
5872;BME280;2962;51.312;7.378;2023-03-04T06:20:54;98075.28;;;1.44;100.00
5872;BME280;2962;51.312;7.378;2023-03-04T06:23:20;98079.19;;;1.52;100.00
5872;BME280;2962;51.312;7.378;2023-03-04T06:25:45;98093.41;;;1.52;100.00
5872;BME280;2962;51.312;7.378;2023-03-04T06:28:10;98096.88;;;1.53;100.00
5872;BME280;2962;51.312;7.378;2023-03-04T06:30:36;98077.66;;;1.45;100.00
5872;BME280;2962;51.312;7.378;2023-03-04T06:33:01;98093.09;;;1.54;100.00
5872;BME280;2962;51.312;7.378;2023-03-04T06:35:26;98088.84;;;1.53;100.00
5872;BME280;2962;51.312;7.378;2023-03-04T06:37:51;98092.03;;;1.55;100.00
5872;BME280;2962;51.312;7.378;2023-03-04T06:40:17;98097.16;;;1.70;100.00
5872;BME280;2962;51.312;7.378;2023-03-04T06:42:42;98097.44;;;1.68;100.00
5872;BME280;2962;51.312;7.378;2023-03-04T06:45:08;98099.97;;;1.79;100.00
5872;BME280;2962;51.312;7.378;2023-03-04T06:47:33;98111.50;;;1.79;100.00
5872;BME280;2962;51.312;7.378;2023-03-04T06:49:58;98109.31;;;1.81;100.00
5872;BME280;2962;51.312;7.378;2023-03-04T06:52:24;98108.91;;;1.74;100.00
5872;BME280;2962;51.312;7.378;2023-03-04T06:54:49;98114.69;;;1.81;100.00
5872;BME280;2962;51.312;7.378;2023-03-04T06:57:15;98113.28;;;1.70;100.00
5872;BME280;2962;51.312;7.378;2023-03-04T06:59:40;98111.97;;;1.67;100.00
5872;BME280;2962;51.312;7.378;2023-03-04T07:02:05;98094.97;;;1.72;100.00
5872;BME280;2962;51.312;7.378;2023-03-04T07:04:31;98094.25;;;1.66;100.00
5872;BME280;2962;51.312;7.378;2023-03-04T07:06:56;98101.63;;;1.75;100.00
5872;BME280;2962;51.312;7.378;2023-03-04T07:09:22;98110.41;;;1.80;100.00
5872;BME280;2962;51.312;7.378;2023-03-04T07:11:47;98097.66;;;1.72;100.00
5872;BME280;2962;51.312;7.378;2023-03-04T07:14:13;98107.81;;;1.75;100.00
5872;BME280;2962;51.312;7.378;2023-03-04T07:16:38;98117.19;;;1.78;100.00
5872;BME280;2962;51.312;7.378;2023-03-04T07:19:04;98112.38;;;1.75;100.00
5872;BME280;2962;51.312;7.378;2023-03-04T07:21:29;98117.81;;;1.88;100.00
5872;BME280;2962;51.312;7.378;2023-03-04T07:23:54;98110.53;;;1.89;100.00
5872;BME280;2962;51.312;7.378;2023-03-04T07:26:20;98122.78;;;1.95;100.00
5872;BME280;2962;51.312;7.378;2023-03-04T07:28:45;98123.88;;;1.94;100.00
5872;BME280;2962;51.312;7.378;2023-03-04T07:31:28;98125.69;;;1.99;100.00
5872;BME280;2962;51.312;7.378;2023-03-04T07:34:05;98124.19;;;1.92;100.00
5872;BME280;2962;51.312;7.378;2023-03-04T07:36:32;98126.72;;;1.84;100.00
5872;BME280;2962;51.312;7.378;2023-03-04T07:38:57;98130.41;;;1.88;100.00
5872;BME280;2962;51.312;7.378;2023-03-04T07:41:25;98120.50;;;1.88;100.00
5872;BME280;2962;51.312;7.378;2023-03-04T07:43:51;98122.03;;;1.76;100.00
5872;BME280;2962;51.312;7.378;2023-03-04T07:46:17;98124.56;;;1.86;100.00
5872;BME280;2962;51.312;7.378;2023-03-04T07:48:44;98131.72;;;1.90;100.00
5872;BME280;2962;51.312;7.378;2023-03-04T07:51:14;98131.53;;;1.87;100.00
5872;BME280;2962;51.312;7.378;2023-03-04T07:53:42;98128.88;;;2.01;100.00
5872;BME280;2962;51.312;7.378;2023-03-04T07:56:11;98132.00;;;2.08;100.00
5872;BME280;2962;51.312;7.378;2023-03-04T07:58:38;98128.00;;;2.05;100.00
5872;BME280;2962;51.312;7.378;2023-03-04T08:01:14;98132.47;;;2.10;100.00
5872;BME280;2962;51.312;7.378;2023-03-04T08:03:40;98125.56;;;2.04;100.00
5872;BME280;2962;51.312;7.378;2023-03-04T08:06:07;98135.16;;;2.10;100.00
5872;BME280;2962;51.312;7.378;2023-03-04T08:08:34;98134.50;;;1.85;100.00
5872;BME280;2962;51.312;7.378;2023-03-04T08:11:03;98133.31;;;1.91;100.00
5872;BME280;2962;51.312;7.378;2023-03-04T08:13:28;98137.00;;;1.95;100.00
5872;BME280;2962;51.312;7.378;2023-03-04T08:15:55;98132.53;;;1.91;100.00
5872;BME280;2962;51.312;7.378;2023-03-04T08:18:20;98137.84;;;1.96;100.00
5872;BME280;2962;51.312;7.378;2023-03-04T08:20:45;98132.25;;;1.92;100.00
5872;BME280;2962;51.312;7.378;2023-03-04T08:23:11;98139.50;;;1.92;100.00
5872;BME280;2962;51.312;7.378;2023-03-04T08:25:40;98140.13;;;2.03;100.00
5872;BME280;2962;51.312;7.378;2023-03-04T08:28:07;98142.63;;;2.13;100.00
5872;BME280;2962;51.312;7.378;2023-03-04T08:30:32;98142.34;;;2.14;100.00
5872;BME280;2962;51.312;7.378;2023-03-04T08:32:58;98128.19;;;2.09;100.00
5872;BME280;2962;51.312;7.378;2023-03-04T08:35:23;98138.84;;;2.14;100.00
5872;BME280;2962;51.312;7.378;2023-03-04T08:37:48;98138.25;;;2.17;100.00
5872;BME280;2962;51.312;7.378;2023-03-04T08:40:14;98134.78;;;2.30;100.00
5872;BME280;2962;51.312;7.378;2023-03-04T08:42:40;98131.72;;;2.23;100.00
5872;BME280;2962;51.312;7.378;2023-03-04T08:45:07;98140.38;;;2.34;100.00
5872;BME280;2962;51.312;7.378;2023-03-04T08:47:33;98107.41;;;2.42;100.00
5872;BME280;2962;51.312;7.378;2023-03-04T08:49:58;98135.03;;;2.61;100.00
5872;BME280;2962;51.312;7.378;2023-03-04T08:52:24;98140.19;;;2.85;100.00
5872;BME280;2962;51.312;7.378;2023-03-04T08:54:49;98125.81;;;3.04;100.00
5872;BME280;2962;51.312;7.378;2023-03-04T08:57:14;98142.66;;;2.96;100.00
5872;BME280;2962;51.312;7.378;2023-03-04T08:59:40;98135.38;;;3.10;100.00
5872;BME280;2962;51.312;7.378;2023-03-04T09:02:05;98132.22;;;3.30;100.00
5872;BME280;2962;51.312;7.378;2023-03-04T09:04:31;98130.41;;;3.39;100.00
5872;BME280;2962;51.312;7.378;2023-03-04T09:06:56;98134.31;;;3.33;100.00
5872;BME280;2962;51.312;7.378;2023-03-04T09:09:21;98123.47;;;3.25;100.00
5872;BME280;2962;51.312;7.378;2023-03-04T09:11:47;98102.72;;;3.25;100.00
5872;BME280;2962;51.312;7.378;2023-03-04T09:14:12;98123.16;;;3.26;100.00
5872;BME280;2962;51.312;7.378;2023-03-04T09:16:37;98123.13;;;3.40;100.00
5872;BME280;2962;51.312;7.378;2023-03-04T09:19:02;98123.19;;;3.49;100.00
5872;BME280;2962;51.312;7.378;2023-03-04T09:21:28;98135.50;;;3.86;100.00
5872;BME280;2962;51.312;7.378;2023-03-04T09:23:53;98103.16;;;3.86;100.00
5872;BME280;2962;51.312;7.378;2023-03-04T09:26:24;98119.34;;;3.86;100.00
5872;BME280;2962;51.312;7.378;2023-03-04T09:28:58;98117.56;;;4.04;100.00
5872;BME280;2962;51.312;7.378;2023-03-04T09:31:24;98123.75;;;3.82;100.00
5872;BME280;2962;51.312;7.378;2023-03-04T09:33:51;98131.28;;;3.49;100.00
5872;BME280;2962;51.312;7.378;2023-03-04T09:36:16;98123.06;;;3.31;100.00
5872;BME280;2962;51.312;7.378;2023-03-04T09:38:42;98115.38;;;3.25;100.00
5872;BME280;2962;51.312;7.378;2023-03-04T09:41:12;98126.38;;;3.14;100.00
5872;BME280;2962;51.312;7.378;2023-03-04T09:43:40;98131.81;;;3.01;100.00
5872;BME280;2962;51.312;7.378;2023-03-04T09:46:10;98126.50;;;2.96;100.00
5872;BME280;2962;51.312;7.378;2023-03-04T09:48:44;98135.75;;;3.17;100.00
5872;BME280;2962;51.312;7.378;2023-03-04T09:54:10;98126.28;;;3.20;100.00
5872;BME280;2962;51.312;7.378;2023-03-04T09:56:40;98144.44;;;3.14;100.00
5872;BME280;2962;51.312;7.378;2023-03-04T10:02:01;98135.00;;;2.89;100.00
5872;BME280;2962;51.312;7.378;2023-03-04T10:04:40;98125.44;;;2.69;100.00
5872;BME280;2962;51.312;7.378;2023-03-04T10:07:16;98140.50;;;2.70;100.00
5872;BME280;2962;51.312;7.378;2023-03-04T10:09:46;98138.00;;;2.60;100.00
5872;BME280;2962;51.312;7.378;2023-03-04T10:12:15;98131.44;;;2.66;100.00
5872;BME280;2962;51.312;7.378;2023-03-04T10:14:52;98117.78;;;2.62;100.00
5872;BME280;2962;51.312;7.378;2023-03-04T10:17:21;98121.66;;;2.70;100.00
5872;BME280;2962;51.312;7.378;2023-03-04T10:20:01;98136.09;;;2.88;100.00
5872;BME280;2962;51.312;7.378;2023-03-04T10:22:32;98132.69;;;3.10;100.00
5872;BME280;2962;51.312;7.378;2023-03-04T10:25:12;98126.81;;;3.08;100.00
5872;BME280;2962;51.312;7.378;2023-03-04T10:27:39;98137.06;;;2.92;100.00
5872;BME280;2962;51.312;7.378;2023-03-04T10:30:12;98143.59;;;2.77;100.00
5872;BME280;2962;51.312;7.378;2023-03-04T10:32:45;98139.22;;;2.81;100.00
5872;BME280;2962;51.312;7.378;2023-03-04T10:35:11;98138.09;;;2.68;100.00
5872;BME280;2962;51.312;7.378;2023-03-04T10:37:49;98129.81;;;2.79;100.00
5872;BME280;2962;51.312;7.378;2023-03-04T10:40:21;98136.00;;;2.79;100.00
5872;BME280;2962;51.312;7.378;2023-03-04T10:42:50;98130.44;;;2.62;100.00
5872;BME280;2962;51.312;7.378;2023-03-04T10:45:25;98133.63;;;2.64;100.00
5872;BME280;2962;51.312;7.378;2023-03-04T10:47:55;98136.59;;;2.76;100.00
5872;BME280;2962;51.312;7.378;2023-03-04T10:50:23;98135.00;;;2.89;100.00
5872;BME280;2962;51.312;7.378;2023-03-04T10:52:49;98122.81;;;2.91;100.00
5872;BME280;2962;51.312;7.378;2023-03-04T10:55:42;98130.97;;;3.14;100.00
5872;BME280;2962;51.312;7.378;2023-03-04T10:58:12;98125.00;;;3.03;100.00
5872;BME280;2962;51.312;7.378;2023-03-04T11:00:39;98130.19;;;3.00;100.00
5872;BME280;2962;51.312;7.378;2023-03-04T11:05:46;98116.31;;;3.06;100.00
5872;BME280;2962;51.312;7.378;2023-03-04T11:08:22;98124.00;;;3.13;100.00
5872;BME280;2962;51.312;7.378;2023-03-04T11:10:48;98115.66;;;3.01;100.00
5872;BME280;2962;51.312;7.378;2023-03-04T11:13:24;98108.56;;;2.91;100.00
5872;BME280;2962;51.312;7.378;2023-03-04T11:20:56;98110.34;;;3.09;100.00
5872;BME280;2962;51.312;7.378;2023-03-04T11:23:43;98117.81;;;3.12;100.00
5872;BME280;2962;51.312;7.378;2023-03-04T11:26:14;98113.53;;;3.11;100.00
5872;BME280;2962;51.312;7.378;2023-03-04T11:29:01;98115.13;;;3.12;100.00
5872;BME280;2962;51.312;7.378;2023-03-04T11:31:33;98097.41;;;2.98;100.00
5872;BME280;2962;51.312;7.378;2023-03-04T11:34:06;98107.19;;;2.93;100.00
5872;BME280;2962;51.312;7.378;2023-03-04T11:36:51;98095.38;;;3.03;100.00
5872;BME280;2962;51.312;7.378;2023-03-04T11:39:30;98090.38;;;3.10;100.00
5872;BME280;2962;51.312;7.378;2023-03-04T11:42:20;98104.03;;;3.28;100.00
5872;BME280;2962;51.312;7.378;2023-03-04T11:44:47;98097.25;;;3.16;100.00
5872;BME280;2962;51.312;7.378;2023-03-04T11:47:40;98096.28;;;3.12;100.00
5872;BME280;2962;51.312;7.378;2023-03-04T11:50:37;98089.78;;;3.13;100.00
5872;BME280;2962;51.312;7.378;2023-03-04T11:56:22;98095.88;;;3.19;100.00
5872;BME280;2962;51.312;7.378;2023-03-04T11:59:04;98098.25;;;3.21;100.00
5872;BME280;2962;51.312;7.378;2023-03-04T12:04:48;98080.56;;;3.28;100.00
5872;BME280;2962;51.312;7.378;2023-03-04T12:10:26;98074.25;;;3.33;100.00
5872;BME280;2962;51.312;7.378;2023-03-04T12:21:50;98065.69;;;3.53;100.00
5872;BME280;2962;51.312;7.378;2023-03-04T12:30:05;98049.50;;;3.76;100.00
5872;BME280;2962;51.312;7.378;2023-03-04T12:35:35;98047.94;;;3.75;100.00
5872;BME280;2962;51.312;7.378;2023-03-04T12:41:14;98036.34;;;3.74;100.00
5872;BME280;2962;51.312;7.378;2023-03-04T12:43:57;98037.41;;;3.64;100.00
5872;BME280;2962;51.312;7.378;2023-03-04T12:47:05;98043.72;;;3.60;100.00
5872;BME280;2962;51.312;7.378;2023-03-04T12:55:22;98030.00;;;3.70;100.00
5872;BME280;2962;51.312;7.378;2023-03-04T12:57:50;98014.88;;;3.60;100.00
5872;BME280;2962;51.312;7.378;2023-03-04T13:00:45;98020.94;;;3.66;100.00
5872;BME280;2962;51.312;7.378;2023-03-04T13:03:30;98022.66;;;3.62;100.00
5872;BME280;2962;51.312;7.378;2023-03-04T13:06:11;98019.47;;;3.60;100.00
5872;BME280;2962;51.312;7.378;2023-03-04T13:08:53;98016.72;;;3.51;100.00
5872;BME280;2962;51.312;7.378;2023-03-04T13:14:06;98010.47;;;3.42;100.00
5872;BME280;2962;51.312;7.378;2023-03-04T13:16:38;98012.91;;;3.52;100.00
5872;BME280;2962;51.312;7.378;2023-03-04T13:22:34;98014.31;;;3.50;100.00
5872;BME280;2962;51.312;7.378;2023-03-04T13:25:29;98002.66;;;3.54;100.00
5872;BME280;2962;51.312;7.378;2023-03-04T13:43:46;98006.63;;;3.34;100.00
5872;BME280;2962;51.312;7.378;2023-03-04T13:51:34;98001.88;;;3.31;100.00
5872;BME280;2962;51.312;7.378;2023-03-04T13:54:25;97984.59;;;3.32;100.00
5872;BME280;2962;51.312;7.378;2023-03-04T13:59:47;97988.38;;;3.54;100.00
5872;BME280;2962;51.312;7.378;2023-03-04T14:02:21;97983.09;;;3.49;100.00
5872;BME280;2962;51.312;7.378;2023-03-04T14:07:24;97988.13;;;3.41;100.00
5872;BME280;2962;51.312;7.378;2023-03-04T14:12:24;97967.69;;;3.40;100.00
5872;BME280;2962;51.312;7.378;2023-03-04T14:14:53;97981.94;;;3.41;100.00
5872;BME280;2962;51.312;7.378;2023-03-04T14:17:25;97973.22;;;3.35;100.00
5872;BME280;2962;51.312;7.378;2023-03-04T14:19:52;97972.09;;;3.36;100.00
5872;BME280;2962;51.312;7.378;2023-03-04T14:22:21;97957.25;;;3.39;100.00
5872;BME280;2962;51.312;7.378;2023-03-04T14:27:23;97960.38;;;3.32;100.00
5872;BME280;2962;51.312;7.378;2023-03-04T14:29:56;97962.13;;;3.37;100.00
5872;BME280;2962;51.312;7.378;2023-03-04T14:32:22;97962.22;;;3.54;100.00
5872;BME280;2962;51.312;7.378;2023-03-04T14:34:49;97969.56;;;3.62;100.00
5872;BME280;2962;51.312;7.378;2023-03-04T14:37:22;97960.97;;;3.60;100.00
5872;BME280;2962;51.312;7.378;2023-03-04T14:39:56;97962.41;;;3.58;100.00
5872;BME280;2962;51.312;7.378;2023-03-04T14:42:24;97951.75;;;3.53;100.00
5872;BME280;2962;51.312;7.378;2023-03-04T14:44:54;97952.59;;;3.62;100.00
5872;BME280;2962;51.312;7.378;2023-03-04T14:47:36;97942.66;;;3.71;100.00
5872;BME280;2962;51.312;7.378;2023-03-04T14:50:15;97940.13;;;3.75;100.00
5872;BME280;2962;51.312;7.378;2023-03-04T14:52:43;97945.16;;;3.67;100.00
5872;BME280;2962;51.312;7.378;2023-03-04T14:57:41;97928.63;;;3.52;100.00
5872;BME280;2962;51.312;7.378;2023-03-04T15:02:53;97923.41;;;3.55;100.00
5872;BME280;2962;51.312;7.378;2023-03-04T15:05:23;97930.69;;;3.55;100.00